Portada
METAR-TAF:

METAR-TAF

Aeroports :

Munda, New Georgia, Illes Salomó

latitud: 8-19-41S, longitud: 157-15-47E, altitud: 3 m

Observació

L'informe es va fer fa 4 hores i 36 minuts, a les 05:00 UTC
Vent 3 kt del Sud
Temperatura 31°C
Humitat 66%
Pressió 1006 hPa
Visibilitat 10 km o més
Escasses núvols a una alçada de 2000 ft

METAR: AGGM 080500Z 18003KT 9999 FEW020 31/24 Q1006

Hora: 20:36 (09:36 UTC)

Pronòstic

L'informe es va fer fa 10 hores i 26 minuts, a les 23:10 UTC
Pronòstic vàlid del 08 a les 00 UTC al 08 a les 24 UTC
Vent 10 kt del Sud/Sud-Est
Visibilitat: 1008 m
Escasses núvols a una alçada de 1900 ft

TAF: AGGM 072310Z 0800/0824 16010KT 9999 FEW019 Q 1009 1007 1006 1008

Observacions i pronòstics meteorològics de més de 4000 aeroports (METAR i TAF).

Les estacions disponibles són els punts grocs i vermells al mapa.

Posi el ratolí al punt desitjat per veure el nom de l'estació.

Feu clic per veure les observacions i els pronòstics meteorològics.

Per canviar el mapa: feu clic els botons verds amb una creu de color negre per apropar; al botó verd amb un guió per allunyar la imatge; o en les fletxes verdes per a mapes adjacents.


METAR-TAF: